createdAt,value
2023-02-04T00:01:45.232Z,102019.84
2023-02-04T00:04:12.800Z,102029.69
2023-02-04T00:06:39.509Z,102028.03
2023-02-04T00:09:07.946Z,102042.38
2023-02-04T00:11:34.718Z,102053.16
2023-02-04T00:14:01.292Z,102062.06
2023-02-04T00:16:27.997Z,102066.47
2023-02-04T00:18:54.626Z,102075.44
2023-02-04T00:21:21.270Z,102084.34
2023-02-04T00:23:48.075Z,102088.84
2023-02-04T00:26:16.053Z,102099.66
2023-02-04T00:28:42.629Z,102098.66
2023-02-04T00:31:09.250Z,102121.94
2023-02-04T00:33:35.873Z,102111.28
2023-02-04T00:36:02.844Z,102122.88
2023-02-04T00:38:29.405Z,102131.84
2023-02-04T00:40:56.072Z,102141.69
2023-02-04T00:43:24.051Z,102154.31
2023-02-04T00:45:50.718Z,102169.56
2023-02-04T00:48:17.310Z,102178.63
2023-02-04T00:50:43.895Z,102192.16
2023-02-04T00:53:10.475Z,102198.47
2023-02-04T00:55:37.107Z,102211.97
2023-02-04T00:58:03.863Z,102227.41
2023-02-04T01:00:32.292Z,102240.94
2023-02-04T01:02:59.086Z,102242.91
2023-02-04T01:05:25.779Z,102252.91
2023-02-04T01:07:52.770Z,102256.72
2023-02-04T01:10:19.473Z,102278.34
2023-02-04T01:12:46.170Z,102285.72
2023-02-04T01:15:12.928Z,102289.50
2023-02-04T01:17:40.940Z,102285.22
2023-02-04T01:20:08.754Z,102297.00
2023-02-04T01:22:35.432Z,102320.38
2023-02-04T01:25:02.002Z,102319.56
2023-02-04T01:27:28.561Z,102325.94
2023-02-04T01:29:55.199Z,102329.69
2023-02-04T01:32:21.845Z,102324.38
2023-02-04T01:34:49.881Z,102328.88
2023-02-04T01:37:16.642Z,102330.66
2023-02-04T01:39:43.335Z,102337.84
2023-02-04T01:42:10.360Z,102355.81
2023-02-04T01:44:37.231Z,102371.88
2023-02-04T01:47:03.832Z,102383.59
2023-02-04T01:49:30.531Z,102389.91
2023-02-04T01:51:58.607Z,102398.09
2023-02-04T01:54:26.501Z,102399.16
2023-02-04T01:56:53.207Z,102406.38
2023-02-04T01:59:19.794Z,102410.97
2023-02-04T02:01:47.833Z,102416.31
2023-02-04T02:04:17.244Z,102421.81
2023-02-04T02:06:48.389Z,102438.88
2023-02-04T02:09:16.917Z,102447.81
2023-02-04T02:11:43.872Z,102450.53
2023-02-04T02:14:11.057Z,102456.03
2023-02-04T02:16:37.703Z,102465.91
2023-02-04T02:19:05.553Z,102461.56
2023-02-04T02:21:37.845Z,102469.63
2023-02-04T02:24:25.018Z,102475.94
2023-02-04T02:26:52.433Z,102487.59
2023-02-04T02:29:19.464Z,102487.75
2023-02-04T02:31:46.470Z,102495.81
2023-02-04T02:34:13.306Z,102500.38
2023-02-04T02:36:40.186Z,102509.34
2023-02-04T02:39:08.867Z,102514.84
2023-02-04T02:41:35.552Z,102530.91
2023-02-04T02:44:02.991Z,102525.72
2023-02-04T02:46:29.653Z,102532.09
2023-02-04T02:48:56.418Z,102536.63
2023-02-04T02:51:23.056Z,102545.63
2023-02-04T02:53:50.035Z,102550.97
2023-02-04T02:56:19.212Z,102549.25
2023-02-04T02:58:46.026Z,102560.94
2023-02-04T03:01:13.023Z,102557.44
2023-02-04T03:03:44.212Z,102572.72
2023-02-04T03:06:13.908Z,102570.16
2023-02-04T03:08:41.249Z,102571.13
2023-02-04T03:11:07.979Z,102578.34
2023-02-04T03:13:36.438Z,102586.50
2023-02-04T03:16:04.016Z,102593.66
2023-02-04T03:18:31.264Z,102605.34
2023-02-04T03:20:58.440Z,102618.75
2023-02-04T03:23:25.687Z,102625.13
2023-02-04T03:25:52.336Z,102639.44
2023-02-04T03:28:19.111Z,102641.31
2023-02-04T03:30:47.210Z,102646.72
2023-02-04T03:33:13.832Z,102661.94
2023-02-04T03:35:40.432Z,102670.91
2023-02-04T03:38:06.999Z,102675.47
2023-02-04T03:40:34.135Z,102681.75
2023-02-04T03:43:00.722Z,102693.41
2023-02-04T03:45:30.413Z,102702.38
2023-02-04T03:48:03.136Z,102711.41
2023-02-04T03:50:29.968Z,102721.28
2023-02-04T03:52:56.680Z,102727.56
2023-02-04T03:55:23.469Z,102733.81
2023-02-04T03:57:50.040Z,102729.50
2023-02-04T04:00:16.855Z,102741.13
2023-02-04T04:02:43.470Z,102735.78
2023-02-04T04:05:11.946Z,102742.06
2023-02-04T04:07:38.584Z,102754.53
2023-02-04T04:10:05.670Z,102758.13
2023-02-04T04:12:32.221Z,102772.47
2023-02-04T04:14:58.786Z,102776.91
2023-02-04T04:17:25.631Z,102777.84
2023-02-04T04:19:52.247Z,102787.59
2023-02-04T04:22:20.240Z,102787.63
2023-02-04T04:24:46.862Z,102794.72
2023-02-04T04:27:13.471Z,102797.47
2023-02-04T04:29:40.010Z,102811.72
2023-02-04T04:32:06.691Z,102817.97
2023-02-04T04:34:33.389Z,102827.78
2023-02-04T04:37:00.012Z,102832.22
2023-02-04T04:39:27.972Z,102843.78
2023-02-04T04:41:54.576Z,102846.44
2023-02-04T04:44:22.285Z,102855.38
2023-02-04T04:46:49.027Z,102859.88
2023-02-04T04:49:15.645Z,102862.53
2023-02-04T04:51:42.466Z,102879.47
2023-02-04T04:54:09.097Z,102875.91
2023-02-04T04:56:37.044Z,102893.75
2023-02-04T04:59:03.829Z,102892.06
2023-02-04T05:01:30.484Z,102901.88
2023-02-04T05:03:57.109Z,102900.16
2023-02-04T05:06:24.007Z,102902.88
2023-02-04T05:08:50.710Z,102909.19
2023-02-04T05:11:17.678Z,102917.22
2023-02-04T05:13:45.679Z,102917.25
2023-02-04T05:16:12.673Z,102925.34
2023-02-04T05:18:39.688Z,102924.47
2023-02-04T05:21:06.931Z,102933.38
2023-02-04T05:23:33.855Z,102931.69
2023-02-04T05:26:00.446Z,102945.13
2023-02-04T05:28:27.487Z,102948.72
2023-02-04T05:30:55.546Z,102949.63
2023-02-04T05:33:22.232Z,102963.88
2023-02-04T05:35:49.960Z,102963.00
2023-02-04T05:38:16.707Z,102971.06
2023-02-04T05:40:43.358Z,102979.13
2023-02-04T05:43:09.942Z,102984.44
2023-02-04T05:45:36.592Z,102994.28
2023-02-04T05:48:05.083Z,102998.66
2023-02-04T05:50:31.922Z,103008.53
2023-02-04T05:52:58.715Z,103011.22
2023-02-04T05:55:25.273Z,103015.66
2023-02-04T05:57:51.898Z,103021.00
2023-02-04T06:00:19.156Z,103029.06
2023-02-04T06:02:45.817Z,103040.59
2023-02-04T06:05:13.858Z,103042.44
2023-02-04T06:07:40.467Z,103049.56
2023-02-04T06:10:07.324Z,103054.91
2023-02-04T06:12:33.938Z,103055.03
2023-02-04T06:15:00.578Z,103068.34
2023-02-04T06:17:27.264Z,103067.50
2023-02-04T06:19:53.844Z,103074.56
2023-02-04T06:22:21.739Z,103071.03
2023-02-04T06:24:48.317Z,103071.97
2023-02-04T06:27:14.962Z,103078.19
2023-02-04T06:29:41.519Z,103078.19
2023-02-04T06:32:08.340Z,103088.84
2023-02-04T06:34:34.940Z,103090.63
2023-02-04T06:37:01.534Z,103087.97
2023-02-04T06:39:29.562Z,103088.88
2023-02-04T06:41:56.298Z,103096.91
2023-02-04T06:44:22.944Z,103091.66
2023-02-04T06:46:49.688Z,103088.09
2023-02-04T06:49:16.595Z,103090.81
2023-02-04T06:51:43.243Z,103092.63
2023-02-04T06:54:10.095Z,103095.31
2023-02-04T06:56:38.084Z,103104.25
2023-02-04T06:59:04.859Z,103107.84
2023-02-04T07:01:31.707Z,103109.66
2023-02-04T07:03:58.385Z,103105.22
2023-02-04T07:06:25.343Z,103109.75
2023-02-04T07:08:51.951Z,103127.53
2023-02-04T07:11:18.636Z,103134.63
2023-02-04T07:13:46.626Z,103133.81
2023-02-04T07:16:13.242Z,103141.84
2023-02-04T07:18:40.190Z,103149.84
2023-02-04T07:21:06.765Z,103151.59
2023-02-04T07:23:33.388Z,103151.59
2023-02-04T07:26:00.041Z,103150.75
2023-02-04T07:28:26.883Z,103152.53
2023-02-04T07:30:54.983Z,103156.97
2023-02-04T07:33:21.676Z,103163.19
2023-02-04T07:35:48.361Z,103171.19
2023-02-04T07:38:14.944Z,103171.19
2023-02-04T07:40:41.677Z,103181.81
2023-02-04T07:43:08.460Z,103182.69
2023-02-04T07:45:35.080Z,103179.97
2023-02-04T07:48:03.283Z,103189.72
2023-02-04T07:50:30.119Z,103190.53
2023-02-04T07:52:56.924Z,103195.75
2023-02-04T07:55:23.553Z,103196.63
2023-02-04T07:57:50.262Z,103210.75
2023-02-04T08:00:17.260Z,103217.78
2023-02-04T08:02:44.253Z,103221.22
2023-02-04T08:05:12.942Z,103230.00
2023-02-04T08:07:39.663Z,103231.69
2023-02-04T08:10:07.253Z,103240.47
2023-02-04T08:12:33.960Z,103240.38
2023-02-04T08:15:00.634Z,103243.84
2023-02-04T08:17:27.673Z,103243.72
2023-02-04T08:19:54.295Z,103254.19
2023-02-04T08:22:22.388Z,103254.94
2023-02-04T08:24:49.062Z,103258.28
2023-02-04T08:27:15.674Z,103267.88
2023-02-04T08:29:42.266Z,103265.88
2023-02-04T08:32:09.321Z,103271.00
2023-02-04T08:34:35.897Z,103273.44
2023-02-04T08:37:02.859Z,103267.00
2023-02-04T08:39:30.968Z,103274.81
2023-02-04T08:41:58.126Z,103280.88
2023-02-04T08:44:24.896Z,103278.91
2023-02-04T08:46:51.783Z,103273.38
2023-02-04T08:49:18.541Z,103277.59
2023-02-04T08:51:45.268Z,103275.59
2023-02-04T08:54:12.051Z,103270.94
2023-02-04T08:56:40.254Z,103282.47
2023-02-04T08:59:07.051Z,103283.22
2023-02-04T09:01:34.050Z,103293.72
2023-02-04T09:04:00.792Z,103290.94
2023-02-04T09:06:27.573Z,103298.03
2023-02-04T09:08:54.351Z,103295.25
2023-02-04T09:11:21.144Z,103301.25
2023-02-04T09:13:49.176Z,103303.75
2023-02-04T09:16:16.032Z,103311.34
2023-02-04T09:18:42.778Z,103312.69
2023-02-04T09:21:09.567Z,103316.75
2023-02-04T09:23:36.275Z,103312.81
2023-02-04T09:26:03.128Z,103315.19
2023-02-04T09:28:29.828Z,103324.06
2023-02-04T09:30:58.128Z,103322.00
2023-02-04T09:33:24.839Z,103324.59
2023-02-04T09:35:51.494Z,103334.34
2023-02-04T09:38:18.500Z,103334.09
2023-02-04T09:40:49.484Z,103343.81
2023-02-04T09:43:20.593Z,103339.31
2023-02-04T09:45:48.918Z,103346.31
2023-02-04T09:48:17.585Z,103346.22
2023-02-04T09:50:44.699Z,103344.31
2023-02-04T09:53:14.821Z,103348.72
2023-02-04T09:55:44.981Z,103347.63
2023-02-04T09:58:14.413Z,103350.25
2023-02-04T10:00:41.104Z,103347.41
2023-02-04T10:03:14.802Z,103355.19
2023-02-04T10:05:43.889Z,103354.88
2023-02-04T10:08:14.434Z,103340.44
2023-02-04T10:10:41.843Z,103352.94
2023-02-04T10:13:16.511Z,103343.25
2023-02-04T10:15:43.441Z,103348.56
2023-02-04T10:18:16.979Z,103346.66
2023-02-04T10:20:45.217Z,103350.09
2023-02-04T10:23:12.815Z,103356.19
2023-02-04T10:25:39.618Z,103352.44
2023-02-04T10:28:06.356Z,103351.31
2023-02-04T10:30:40.300Z,103360.84
2023-02-04T10:33:15.578Z,103362.53
2023-02-04T10:35:48.403Z,103353.31
2023-02-04T10:38:15.178Z,103359.31
2023-02-04T10:40:42.052Z,103376.22
2023-02-04T10:43:10.415Z,103372.81
2023-02-04T10:45:37.617Z,103369.28
2023-02-04T10:48:04.965Z,103378.19
2023-02-04T10:50:32.054Z,103367.13
2023-02-04T10:53:01.632Z,103359.41
2023-02-04T10:55:28.407Z,103377.53
2023-02-04T10:57:55.064Z,103367.34
2023-02-04T11:00:23.727Z,103366.28
2023-02-04T11:02:57.093Z,103373.47
2023-02-04T11:05:26.173Z,103367.16
2023-02-04T11:07:52.980Z,103380.47
2023-02-04T11:10:23.468Z,103375.38
2023-02-04T11:13:01.394Z,103381.94
2023-02-04T11:15:50.789Z,103384.50
2023-02-04T11:18:29.624Z,103381.50
2023-02-04T11:20:57.874Z,103386.78
2023-02-04T11:23:36.182Z,103382.38
2023-02-04T11:26:07.919Z,103385.13
2023-02-04T11:28:56.042Z,103389.47
2023-02-04T11:31:29.675Z,103386.66
2023-02-04T11:34:09.835Z,103399.97
2023-02-04T11:36:51.245Z,103390.16
2023-02-04T11:39:18.362Z,103392.84
2023-02-04T11:41:47.279Z,103396.41
2023-02-04T11:44:15.323Z,103403.75
2023-02-04T11:46:42.157Z,103403.13
2023-02-04T11:49:16.790Z,103412.34
2023-02-04T11:51:43.657Z,103411.69
2023-02-04T11:54:10.926Z,103412.09
2023-02-04T11:56:37.953Z,103415.63
2023-02-04T11:59:06.040Z,103409.16
2023-02-04T12:01:33.966Z,103408.00
2023-02-04T12:04:02.617Z,103410.41
2023-02-04T12:06:31.197Z,103410.34
2023-02-04T12:09:05.464Z,103408.63
2023-02-04T12:11:32.146Z,103404.13
2023-02-04T12:14:07.328Z,103403.66
2023-02-04T12:16:44.515Z,103397.94
2023-02-04T12:19:11.301Z,103405.91
2023-02-04T12:21:38.025Z,103413.19
2023-02-04T12:24:05.049Z,103407.91
2023-02-04T12:26:31.750Z,103410.13
2023-02-04T12:28:58.602Z,103414.06
2023-02-04T12:31:25.630Z,103415.06
2023-02-04T12:33:53.753Z,103410.28
2023-02-04T12:36:20.454Z,103421.44
2023-02-04T12:38:47.303Z,103410.50
2023-02-04T12:41:14.284Z,103414.09
2023-02-04T12:43:40.994Z,103425.19
2023-02-04T12:46:07.726Z,103433.59
2023-02-04T12:48:34.468Z,103424.88
2023-02-04T12:51:02.531Z,103424.19
2023-02-04T12:53:29.307Z,103427.91
2023-02-04T12:55:57.775Z,103446.97
2023-02-04T12:58:24.717Z,103446.13
2023-02-04T13:00:51.513Z,103446.31
2023-02-04T13:03:18.226Z,103437.53
2023-02-04T13:05:44.970Z,103446.34
2023-02-04T13:08:13.009Z,103450.66
2023-02-04T13:10:39.678Z,103443.28
2023-02-04T13:13:06.346Z,103453.88
2023-02-04T13:15:33.336Z,103455.66
2023-02-04T13:18:00.156Z,103445.84
2023-02-04T13:20:26.840Z,103442.22
2023-02-04T13:22:53.598Z,103440.44
2023-02-04T13:25:21.817Z,103454.00
2023-02-04T13:27:48.714Z,103450.34
2023-02-04T13:30:15.590Z,103453.91
2023-02-04T13:32:42.223Z,103455.63
2023-02-04T13:35:09.293Z,103448.25
2023-02-04T13:37:36.011Z,103455.97
2023-02-04T13:40:02.784Z,103443.88
2023-02-04T13:42:31.091Z,103450.66
2023-02-04T13:44:57.903Z,103442.28
2023-02-04T13:47:24.717Z,103451.84
2023-02-04T13:49:51.642Z,103447.31
2023-02-04T13:52:18.667Z,103444.63
2023-02-04T13:54:45.536Z,103457.22
2023-02-04T13:57:12.233Z,103456.47
2023-02-04T13:59:40.345Z,103457.69
2023-02-04T14:02:07.024Z,103456.16
2023-02-04T14:04:34.943Z,103464.47
2023-02-04T14:07:02.904Z,103463.84
2023-02-04T14:09:29.656Z,103469.31
2023-02-04T14:11:56.496Z,103458.47
2023-02-04T14:14:23.171Z,103470.88
2023-02-04T14:16:51.440Z,103471.72
2023-02-04T14:19:18.225Z,103476.22
2023-02-04T14:21:44.884Z,103479.94
2023-02-04T14:24:11.687Z,103474.91
2023-02-04T14:26:38.442Z,103481.47
2023-02-04T14:29:05.076Z,103484.38
2023-02-04T14:31:31.850Z,103495.28
2023-02-04T14:33:59.870Z,103495.50
2023-02-04T14:36:26.600Z,103494.75
2023-02-04T14:38:53.377Z,103501.28
2023-02-04T14:41:20.071Z,103507.69
2023-02-04T14:43:46.779Z,103507.00
2023-02-04T14:46:13.546Z,103499.16
2023-02-04T14:48:40.453Z,103504.75
2023-02-04T14:51:08.627Z,103498.72
2023-02-04T14:53:35.333Z,103506.94
2023-02-04T14:56:02.337Z,103501.66
2023-02-04T14:58:29.023Z,103502.66
2023-02-04T15:00:55.797Z,103505.47
2023-02-04T15:03:22.691Z,103505.59
2023-02-04T15:05:49.374Z,103519.00
2023-02-04T15:08:17.433Z,103512.72
2023-02-04T15:10:44.199Z,103523.44
2023-02-04T15:13:11.106Z,103514.53
2023-02-04T15:15:37.838Z,103511.03
2023-02-04T15:18:04.971Z,103515.56
2023-02-04T15:20:32.113Z,103525.44
2023-02-04T15:23:00.667Z,103523.78
2023-02-04T15:25:29.004Z,103531.91
2023-02-04T15:27:55.758Z,103523.13
2023-02-04T15:30:22.756Z,103530.50
2023-02-04T15:32:49.590Z,103526.19
2023-02-04T15:35:16.560Z,103529.88
2023-02-04T15:37:43.237Z,103532.69
2023-02-04T15:40:11.549Z,103540.84
2023-02-04T15:42:39.804Z,103542.75
2023-02-04T15:45:07.052Z,103543.69
2023-02-04T15:47:33.816Z,103545.59
2023-02-04T15:50:00.542Z,103539.44
2023-02-04T15:52:29.230Z,103540.38
2023-02-04T15:54:56.229Z,103548.56
2023-02-04T15:57:23.163Z,103544.28
2023-02-04T15:59:51.332Z,103548.81
2023-02-04T16:02:18.041Z,103548.91
2023-02-04T16:04:45.573Z,103555.28
2023-02-04T16:07:12.401Z,103552.75
2023-02-04T16:09:39.225Z,103556.50
2023-02-04T16:12:06.512Z,103557.53
2023-02-04T16:14:33.358Z,103568.44
2023-02-04T16:17:01.734Z,103557.88
2023-02-04T16:19:28.787Z,103562.44
2023-02-04T16:21:55.760Z,103564.38
2023-02-04T16:24:22.473Z,103560.00
2023-02-04T16:26:49.137Z,103563.72
2023-02-04T16:29:15.794Z,103568.31
2023-02-04T16:31:42.411Z,103563.94
2023-02-04T16:34:10.592Z,103571.22
2023-02-04T16:36:37.244Z,103568.59
2023-02-04T16:39:04.202Z,103571.44
2023-02-04T16:41:30.881Z,103568.91
2023-02-04T16:43:57.981Z,103575.28
2023-02-04T16:46:24.783Z,103571.81
2023-02-04T16:48:51.622Z,103576.34
2023-02-04T16:51:19.755Z,103572.00
2023-02-04T16:53:46.476Z,103583.66
2023-02-04T16:56:13.266Z,103582.00
2023-02-04T16:58:40.082Z,103584.69
2023-02-04T17:01:06.821Z,103591.03
2023-02-04T17:03:33.574Z,103590.22
2023-02-04T17:06:00.215Z,103604.56
2023-02-04T17:08:28.248Z,103601.13
2023-02-04T17:10:55.203Z,103592.28
2023-02-04T17:13:22.048Z,103601.28
2023-02-04T17:15:48.846Z,103603.13
2023-02-04T17:18:15.557Z,103599.63
2023-02-04T17:20:42.436Z,103602.41
2023-02-04T17:23:09.150Z,103601.59
2023-02-04T17:25:37.254Z,103611.47
2023-02-04T17:28:04.119Z,103610.75
2023-02-04T17:30:31.043Z,103605.50
2023-02-04T17:32:57.753Z,103611.88
2023-02-04T17:35:24.414Z,103615.47
2023-02-04T17:37:51.219Z,103624.47
2023-02-04T17:40:18.307Z,103625.44
2023-02-04T17:42:46.405Z,103625.50
2023-02-04T17:45:13.275Z,103626.47
2023-02-04T17:47:40.198Z,103622.94
2023-02-04T17:50:08.957Z,103630.13
2023-02-04T17:52:36.031Z,103629.31
2023-02-04T17:55:09.822Z,103631.19
2023-02-04T17:57:37.088Z,103633.03
2023-02-04T18:00:14.191Z,103634.94
2023-02-04T18:02:42.742Z,103633.25
2023-02-04T18:05:14.930Z,103635.19
2023-02-04T18:07:45.967Z,103635.25
2023-02-04T18:10:20.860Z,103636.25
2023-02-04T18:12:47.785Z,103635.47
2023-02-04T18:15:27.601Z,103636.38
2023-02-04T18:17:59.951Z,103633.78
2023-02-04T18:20:26.878Z,103640.94
2023-02-04T18:22:56.296Z,103641.84
2023-02-04T18:25:23.720Z,103640.06
2023-02-04T18:27:52.287Z,103646.28
2023-02-04T18:30:21.672Z,103643.69
2023-02-04T18:32:49.727Z,103641.03
2023-02-04T18:35:37.307Z,103649.97
2023-02-04T18:38:20.002Z,103651.81
2023-02-04T18:40:47.151Z,103651.00
2023-02-04T18:43:22.957Z,103650.19
2023-02-04T18:45:49.855Z,103657.41
2023-02-04T18:48:56.017Z,103651.25
2023-02-04T18:51:31.153Z,103650.44
2023-02-04T18:54:23.495Z,103654.88
2023-02-04T18:56:50.283Z,103662.91
2023-02-04T18:59:19.376Z,103662.09
2023-02-04T19:01:47.716Z,103662.09
2023-02-04T19:04:20.504Z,103663.94
2023-02-04T19:06:49.099Z,103670.19
2023-02-04T19:09:21.584Z,103671.97
2023-02-04T19:11:50.615Z,103672.00
2023-02-04T19:14:22.408Z,103678.25
2023-02-04T19:16:49.850Z,103676.53
2023-02-04T19:19:33.959Z,103675.66
2023-02-04T19:22:10.705Z,103677.47
2023-02-04T19:24:37.399Z,103689.97
2023-02-04T19:27:24.866Z,103686.47
2023-02-04T19:29:54.279Z,103698.94
2023-02-04T19:32:25.991Z,103706.97
2023-02-04T19:34:53.854Z,103708.81
2023-02-04T19:37:26.098Z,103716.84
2023-02-04T19:39:53.650Z,103719.53
2023-02-04T19:42:29.206Z,103726.66
2023-02-04T19:44:58.200Z,103718.69
2023-02-04T19:47:27.638Z,103724.91
2023-02-04T19:50:01.894Z,103724.06
2023-02-04T19:52:34.220Z,103729.41
2023-02-04T19:55:30.321Z,103726.72
2023-02-04T19:57:59.737Z,103729.44
2023-02-04T20:00:51.855Z,103732.13
2023-02-04T20:03:26.702Z,103732.19
2023-02-04T20:05:53.781Z,103736.63
2023-02-04T20:08:44.683Z,103731.38
2023-02-04T20:11:36.128Z,103727.88
2023-02-04T20:14:31.705Z,103722.56
2023-02-04T20:16:59.998Z,103718.19
2023-02-04T20:19:33.971Z,103717.28
2023-02-04T20:22:23.343Z,103721.78
2023-02-04T20:24:54.151Z,103718.22
2023-02-04T20:27:24.568Z,103728.00
2023-02-04T20:29:58.804Z,103733.34
2023-02-04T20:32:28.066Z,103734.22
2023-02-04T20:35:01.257Z,103725.38
2023-02-04T20:37:28.244Z,103740.47
2023-02-04T20:39:56.575Z,103740.47
2023-02-04T20:42:43.862Z,103750.22
2023-02-04T20:45:33.978Z,103742.25
2023-02-04T20:48:13.147Z,103750.25
2023-02-04T20:50:42.466Z,103749.41
2023-02-04T20:53:19.425Z,103747.63
2023-02-04T20:55:50.375Z,103746.72
2023-02-04T20:58:19.619Z,103746.72
2023-02-04T21:00:47.606Z,103746.75
2023-02-04T21:03:34.868Z,103741.44
2023-02-04T21:06:03.494Z,103746.78
2023-02-04T21:08:35.724Z,103737.94
2023-02-04T21:11:03.762Z,103741.50
2023-02-04T21:13:30.545Z,103753.94
2023-02-04T21:15:57.823Z,103749.50
2023-02-04T21:18:25.380Z,103756.63
2023-02-04T21:20:52.007Z,103753.97
2023-02-04T21:23:18.949Z,103746.91
2023-02-04T21:25:45.694Z,103751.38
2023-02-04T21:28:13.762Z,103756.69
2023-02-04T21:30:40.675Z,103757.59
2023-02-04T21:33:07.327Z,103766.47
2023-02-04T21:35:34.173Z,103772.69
2023-02-04T21:38:00.921Z,103775.34
2023-02-04T21:40:27.858Z,103778.91
2023-02-04T21:42:54.960Z,103782.47
2023-02-04T21:45:24.421Z,103781.59
2023-02-04T21:47:52.291Z,103785.16
2023-02-04T21:50:20.508Z,103788.69
2023-02-04T21:52:47.746Z,103786.03
2023-02-04T21:55:16.354Z,103785.13
2023-02-04T21:57:43.094Z,103771.00
2023-02-04T22:00:11.646Z,103770.09
2023-02-04T22:02:39.681Z,103770.09
2023-02-04T22:05:07.678Z,103767.44
2023-02-04T22:07:34.369Z,103770.09
2023-02-04T22:10:01.438Z,103764.81
2023-02-04T22:12:28.308Z,103771.00
2023-02-04T22:14:54.929Z,103772.78
2023-02-04T22:17:21.584Z,103771.91
2023-02-04T22:19:49.632Z,103763.94
2023-02-04T22:22:16.293Z,103762.16
2023-02-04T22:24:42.915Z,103753.28
2023-02-04T22:27:09.686Z,103758.63
2023-02-04T22:29:36.332Z,103763.06
2023-02-04T22:32:03.185Z,103760.41
2023-02-04T22:34:30.058Z,103762.19
2023-02-04T22:36:58.179Z,103766.63
2023-02-04T22:39:24.930Z,103763.97
2023-02-04T22:41:51.698Z,103758.66
2023-02-04T22:44:18.377Z,103760.47
2023-02-04T22:46:47.390Z,103759.59
2023-02-04T22:49:14.240Z,103756.94
2023-02-04T22:51:40.930Z,103762.28
2023-02-04T22:54:08.932Z,103764.03
2023-02-04T22:56:35.605Z,103764.03
2023-02-04T22:59:02.310Z,103759.63
2023-02-04T23:01:29.022Z,103756.06
2023-02-04T23:03:55.756Z,103755.22
2023-02-04T23:06:22.550Z,103752.56
2023-02-04T23:08:49.498Z,103753.44
2023-02-04T23:11:17.466Z,103749.94
2023-02-04T23:13:44.464Z,103756.13
2023-02-04T23:16:11.180Z,103752.56
2023-02-04T23:18:37.842Z,103757.03
2023-02-04T23:21:04.775Z,103753.47
2023-02-04T23:23:31.641Z,103757.88
2023-02-04T23:25:58.403Z,103748.19
2023-02-04T23:28:26.742Z,103741.09
2023-02-04T23:30:53.406Z,103744.66
2023-02-04T23:33:20.017Z,103751.75
2023-02-04T23:35:46.780Z,103749.09
2023-02-04T23:38:13.408Z,103762.38
2023-02-04T23:40:40.161Z,103765.00
2023-02-04T23:43:08.403Z,103763.25
2023-02-04T23:45:37.530Z,103757.06
2023-02-04T23:48:04.962Z,103766.81
2023-02-04T23:50:31.565Z,103765.94
2023-02-04T23:52:58.283Z,103756.19
2023-02-04T23:55:24.840Z,103757.09
2023-02-04T23:57:51.514Z,103755.31
